createdAt,value
2022-12-26T00:00:06.573Z,93.74
2022-12-26T00:02:34.535Z,94.00
2022-12-26T00:05:09.443Z,93.84
2022-12-26T00:07:37.343Z,93.99
2022-12-26T00:10:11.343Z,94.12
2022-12-26T00:12:42.387Z,94.05
2022-12-26T00:15:20.374Z,93.98
2022-12-26T00:17:50.956Z,94.24
2022-12-26T00:20:25.524Z,93.94
2022-12-26T00:22:59.430Z,94.36
2022-12-26T00:25:27.638Z,93.89
2022-12-26T00:28:04.714Z,93.96
2022-12-26T00:30:32.182Z,93.91
2022-12-26T00:35:47.431Z,93.99
2022-12-26T00:38:21.825Z,94.00
2022-12-26T00:40:49.484Z,93.92
2022-12-26T00:43:25.653Z,94.02
2022-12-26T00:45:56.647Z,94.11
2022-12-26T00:48:31.600Z,94.17
2022-12-26T00:51:06.538Z,94.11
2022-12-26T00:53:47.538Z,94.35
2022-12-26T00:56:16.292Z,94.34
2022-12-26T00:58:50.514Z,94.15
2022-12-26T01:01:24.366Z,94.46
2022-12-26T01:03:59.533Z,94.17
2022-12-26T01:06:36.256Z,94.57
2022-12-26T01:09:13.417Z,94.19
2022-12-26T01:11:41.122Z,94.15
2022-12-26T01:14:21.365Z,94.46
2022-12-26T01:16:58.980Z,94.07
2022-12-26T01:19:36.141Z,94.10
2022-12-26T01:22:06.784Z,94.14
2022-12-26T01:24:43.401Z,93.87
2022-12-26T01:27:17.759Z,94.30
2022-12-26T01:29:51.303Z,94.12
2022-12-26T01:32:35.750Z,94.15
2022-12-26T01:35:14.811Z,94.10
2022-12-26T01:37:49.496Z,94.19
2022-12-26T01:40:16.931Z,94.15
2022-12-26T01:42:50.321Z,94.22
2022-12-26T01:45:32.657Z,93.89
2022-12-26T01:48:11.442Z,94.07
2022-12-26T01:51:03.790Z,93.92
2022-12-26T01:53:48.335Z,94.05
2022-12-26T01:56:31.254Z,94.00
2022-12-26T01:59:42.428Z,94.04
2022-12-26T02:02:17.684Z,93.95
2022-12-26T02:05:07.982Z,94.08
2022-12-26T02:07:46.196Z,93.96
2022-12-26T02:10:23.366Z,94.03
2022-12-26T02:13:00.362Z,94.10
2022-12-26T02:15:35.399Z,93.78
2022-12-26T02:24:35.381Z,94.02
2022-12-26T02:27:19.528Z,93.87
2022-12-26T02:30:22.594Z,94.17
2022-12-26T02:33:17.445Z,94.04
2022-12-26T02:36:21.431Z,94.12
2022-12-26T02:39:44.831Z,94.11
2022-12-26T02:42:28.325Z,93.98
2022-12-26T02:45:48.613Z,93.85
2022-12-26T02:48:24.682Z,94.16
2022-12-26T02:51:47.460Z,94.01
2022-12-26T02:54:52.187Z,93.73
2022-12-26T02:58:03.222Z,94.02
2022-12-26T03:00:53.074Z,93.78
2022-12-26T03:03:55.675Z,94.03
2022-12-26T03:06:53.561Z,93.95
2022-12-26T03:09:43.689Z,93.85
2022-12-26T03:13:03.522Z,93.94
2022-12-26T03:16:02.778Z,93.77
2022-12-26T03:18:57.683Z,93.98
2022-12-26T03:21:32.666Z,93.77
2022-12-26T03:24:17.515Z,93.74
2022-12-26T03:26:59.580Z,94.08
2022-12-26T03:29:47.080Z,93.96
2022-12-26T03:32:23.735Z,93.92
2022-12-26T03:34:56.205Z,93.90
2022-12-26T03:37:54.922Z,94.07
2022-12-26T03:41:18.762Z,93.86
2022-12-26T03:44:13.718Z,94.20
2022-12-26T03:47:28.701Z,93.83
2022-12-26T03:50:20.815Z,94.13
2022-12-26T03:53:46.491Z,93.90
2022-12-26T03:56:53.679Z,93.85
2022-12-26T03:59:55.932Z,93.80
2022-12-26T04:02:54.640Z,93.69
2022-12-26T04:05:51.023Z,93.78
2022-12-26T04:08:43.579Z,93.63
2022-12-26T04:11:42.506Z,93.82
2022-12-26T04:15:06.138Z,93.90
2022-12-26T04:18:13.834Z,93.81
2022-12-26T04:21:15.936Z,93.73
2022-12-26T04:24:15.889Z,93.85
2022-12-26T04:27:06.823Z,93.64
2022-12-26T04:30:00.415Z,93.86
2022-12-26T04:33:21.133Z,93.83
2022-12-26T04:39:26.640Z,93.70
2022-12-26T04:42:22.352Z,93.39
2022-12-26T04:44:57.314Z,93.22
2022-12-26T04:47:34.610Z,93.13
2022-12-26T04:50:13.497Z,93.14
2022-12-26T04:53:10.064Z,92.68
2022-12-26T04:55:44.908Z,92.48
2022-12-26T04:58:18.347Z,92.66
2022-12-26T05:00:54.508Z,92.35
2022-12-26T05:03:51.194Z,92.51
2022-12-26T05:06:46.736Z,92.38
2022-12-26T05:09:40.032Z,92.01
2022-12-26T05:12:16.620Z,91.90
2022-12-26T05:14:47.414Z,91.67
2022-12-26T05:17:41.856Z,91.79
2022-12-26T05:20:37.435Z,91.86
2022-12-26T05:23:30.860Z,91.85
2022-12-26T05:26:25.579Z,91.94
2022-12-26T05:29:17.970Z,91.96
2022-12-26T05:32:01.248Z,92.10
2022-12-26T05:34:35.648Z,91.83
2022-12-26T05:37:07.906Z,91.71
2022-12-26T05:39:42.709Z,91.93
2022-12-26T05:42:15.732Z,92.02
2022-12-26T05:44:53.584Z,92.05
2022-12-26T05:47:27.553Z,91.92
2022-12-26T05:50:06.960Z,91.75
2022-12-26T05:55:46.027Z,91.61
2022-12-26T05:58:20.559Z,92.01
2022-12-26T06:00:54.672Z,92.07
2022-12-26T06:03:28.570Z,92.02
2022-12-26T06:05:58.080Z,91.90
2022-12-26T06:08:41.621Z,92.10
2022-12-26T06:11:15.557Z,92.17
2022-12-26T06:13:52.291Z,92.22
2022-12-26T06:16:20.514Z,92.13
2022-12-26T06:18:57.155Z,91.95
2022-12-26T06:21:31.828Z,91.99
2022-12-26T06:24:08.649Z,92.07
2022-12-26T06:26:39.081Z,92.21
2022-12-26T06:29:16.745Z,92.21
2022-12-26T06:31:48.021Z,92.34
2022-12-26T06:34:25.706Z,92.30
2022-12-26T06:36:56.583Z,92.18
2022-12-26T06:39:35.354Z,92.21
2022-12-26T06:42:14.920Z,92.11
2022-12-26T06:44:45.157Z,92.03
2022-12-26T06:47:19.898Z,92.12
2022-12-26T06:49:57.880Z,92.21
2022-12-26T06:52:41.643Z,92.34
2022-12-26T06:55:09.456Z,92.48
2022-12-26T06:57:48.956Z,92.21
2022-12-26T07:00:23.658Z,92.22
2022-12-26T07:03:07.782Z,92.08
2022-12-26T07:05:42.100Z,92.31
2022-12-26T07:08:21.966Z,92.57
2022-12-26T07:10:49.537Z,92.41
2022-12-26T07:13:24.452Z,92.59
2022-12-26T07:15:58.008Z,92.44
2022-12-26T07:18:32.729Z,92.57
2022-12-26T07:21:03.482Z,92.65
2022-12-26T07:23:38.581Z,92.61
2022-12-26T07:26:09.441Z,92.88
2022-12-26T07:37:42.776Z,92.72
2022-12-26T07:43:04.350Z,92.69
2022-12-26T07:48:37.638Z,92.63
2022-12-26T07:54:57.773Z,92.25
2022-12-26T07:57:48.747Z,92.42
2022-12-26T08:05:58.337Z,91.79
2022-12-26T08:08:35.894Z,91.96
2022-12-26T08:11:08.241Z,91.83
2022-12-26T08:13:42.464Z,91.70
2022-12-26T08:18:58.151Z,91.79
2022-12-26T08:21:28.029Z,91.27
2022-12-26T08:24:05.724Z,91.28
2022-12-26T08:26:37.721Z,91.25
2022-12-26T08:35:27.368Z,91.04
2022-12-26T08:40:43.546Z,90.99
2022-12-26T08:53:09.086Z,90.55
2022-12-26T08:59:11.873Z,90.20
2022-12-26T09:10:49.831Z,89.09
2022-12-26T09:13:39.551Z,88.56
2022-12-26T09:16:17.345Z,88.18
2022-12-26T09:24:44.022Z,86.58
2022-12-26T09:27:15.061Z,86.34
2022-12-26T09:36:14.495Z,86.85
2022-12-26T09:38:50.866Z,86.53
2022-12-26T09:42:00.638Z,86.32
2022-12-26T09:44:49.913Z,86.31
2022-12-26T09:50:23.925Z,85.99
2022-12-26T09:53:20.554Z,86.17
2022-12-26T09:56:37.029Z,86.23
2022-12-26T10:01:55.857Z,85.79
2022-12-26T10:07:38.191Z,85.58
2022-12-26T10:10:29.005Z,85.85
2022-12-26T10:16:54.829Z,86.61
2022-12-26T10:40:29.565Z,88.96
2022-12-26T10:43:03.905Z,89.18
2022-12-26T10:49:06.082Z,89.76
2022-12-26T10:58:17.467Z,89.85
2022-12-26T11:13:08.621Z,88.95
2022-12-26T11:15:41.656Z,86.56
2022-12-26T11:43:12.032Z,87.39
2022-12-26T11:53:03.970Z,86.54
2022-12-26T11:55:56.534Z,85.70
2022-12-26T12:02:43.732Z,85.13
2022-12-26T12:05:23.546Z,85.53
2022-12-26T12:08:21.724Z,84.43
2022-12-26T12:11:32.627Z,84.36
2022-12-26T12:17:25.611Z,85.07
2022-12-26T12:20:39.552Z,84.32
2022-12-26T12:23:46.024Z,83.97
2022-12-26T12:26:28.701Z,84.12
2022-12-26T12:29:17.469Z,83.76
2022-12-26T12:32:18.572Z,83.72
2022-12-26T12:35:14.621Z,84.21
2022-12-26T12:38:00.759Z,83.98
2022-12-26T12:40:52.861Z,83.45
2022-12-26T12:43:52.240Z,83.96
2022-12-26T12:53:48.586Z,83.04
2022-12-26T12:57:06.608Z,82.87
2022-12-26T12:59:57.120Z,82.06
2022-12-26T13:02:41.658Z,80.60
2022-12-26T13:05:26.702Z,81.43
2022-12-26T13:11:37.603Z,80.34
2022-12-26T13:14:20.540Z,80.09
2022-12-26T13:26:33.641Z,80.76
2022-12-26T13:29:48.928Z,81.28
2022-12-26T13:32:28.824Z,80.98
2022-12-26T13:35:14.996Z,81.23
2022-12-26T13:37:42.006Z,81.43
2022-12-26T13:40:17.655Z,81.72
2022-12-26T13:43:25.002Z,82.00
2022-12-26T13:46:04.768Z,81.77
2022-12-26T13:51:59.128Z,81.46
2022-12-26T13:54:30.024Z,81.47
2022-12-26T13:57:36.993Z,81.13
2022-12-26T14:00:43.289Z,81.38
2022-12-26T14:03:50.913Z,81.61
2022-12-26T14:07:03.642Z,81.53
2022-12-26T14:09:34.715Z,81.78
2022-12-26T14:12:17.731Z,81.65
2022-12-26T14:18:56.676Z,81.60
2022-12-26T14:21:35.427Z,81.85
2022-12-26T14:24:17.833Z,81.85
2022-12-26T14:27:12.901Z,81.93
2022-12-26T14:30:25.737Z,82.04
2022-12-26T14:33:17.063Z,82.16
2022-12-26T14:36:34.687Z,82.21
2022-12-26T14:42:31.679Z,82.32
2022-12-26T14:45:09.667Z,82.64
2022-12-26T14:47:55.619Z,82.34
2022-12-26T14:50:43.503Z,81.80
2022-12-26T14:56:22.734Z,81.73
2022-12-26T14:59:27.648Z,81.52
2022-12-26T15:02:27.907Z,81.97
2022-12-26T15:05:19.694Z,82.28
2022-12-26T15:08:20.079Z,82.73
2022-12-26T15:11:15.088Z,83.33
2022-12-26T15:14:20.682Z,83.66
2022-12-26T15:17:18.923Z,83.37
2022-12-26T15:20:13.724Z,83.78
2022-12-26T15:23:11.274Z,83.56
2022-12-26T15:25:51.115Z,83.68
2022-12-26T15:28:41.792Z,83.18
2022-12-26T15:31:37.233Z,82.87
2022-12-26T15:37:24.704Z,83.25
2022-12-26T15:40:08.843Z,83.25
2022-12-26T15:42:54.366Z,83.16
2022-12-26T15:48:22.511Z,78.59
2022-12-26T15:51:53.862Z,77.72
2022-12-26T15:55:05.962Z,77.43
2022-12-26T15:57:53.052Z,79.57
2022-12-26T16:00:32.785Z,80.34
2022-12-26T16:03:37.318Z,80.44
2022-12-26T16:06:51.736Z,80.39
2022-12-26T16:09:49.856Z,80.86
2022-12-26T16:12:37.615Z,80.61
2022-12-26T16:15:18.489Z,80.85
2022-12-26T16:17:49.139Z,80.85
2022-12-26T16:20:54.990Z,81.07
2022-12-26T16:23:30.161Z,80.58
2022-12-26T16:26:07.768Z,80.25
2022-12-26T16:28:42.146Z,80.24
2022-12-26T16:31:16.800Z,80.02
2022-12-26T16:33:55.003Z,79.83
2022-12-26T16:36:35.786Z,79.86
2022-12-26T16:39:17.698Z,79.78
2022-12-26T16:44:47.826Z,80.05
2022-12-26T16:47:30.320Z,79.15
2022-12-26T16:49:58.882Z,79.70
2022-12-26T16:52:49.758Z,79.83
2022-12-26T16:55:30.588Z,80.12
2022-12-26T16:58:30.720Z,79.86
2022-12-26T17:14:45.135Z,80.01
2022-12-26T17:17:30.675Z,79.96
2022-12-26T17:26:37.923Z,79.58
2022-12-26T17:29:12.973Z,79.80
2022-12-26T17:31:49.226Z,79.34
2022-12-26T17:37:42.983Z,79.11
2022-12-26T17:40:23.223Z,78.89
2022-12-26T17:43:01.859Z,79.27
2022-12-26T17:45:49.255Z,78.75
2022-12-26T17:48:28.000Z,79.04
2022-12-26T17:51:04.928Z,79.17
2022-12-26T17:53:44.345Z,79.05
2022-12-26T17:56:39.583Z,79.10
2022-12-26T17:59:25.673Z,79.29
2022-12-26T18:02:07.014Z,79.35
2022-12-26T18:05:06.899Z,79.58
2022-12-26T18:07:43.665Z,79.73
2022-12-26T18:10:25.097Z,79.79
2022-12-26T18:13:00.059Z,80.20
2022-12-26T18:15:31.376Z,80.02
2022-12-26T18:18:10.902Z,80.04
2022-12-26T18:20:38.847Z,80.08
2022-12-26T18:23:18.491Z,80.29
2022-12-26T18:28:38.593Z,80.52
2022-12-26T18:31:14.874Z,80.67
2022-12-26T18:33:54.014Z,80.69
2022-12-26T18:36:28.183Z,80.74
2022-12-26T18:44:30.179Z,80.94
2022-12-26T18:49:46.953Z,81.08
2022-12-26T18:52:18.593Z,81.40
2022-12-26T18:54:55.097Z,81.81
2022-12-26T19:01:08.872Z,81.81
2022-12-26T19:03:45.323Z,82.21
2022-12-26T19:06:25.151Z,82.13
2022-12-26T19:09:11.511Z,82.37
2022-12-26T19:14:36.363Z,82.46
2022-12-26T19:17:29.476Z,82.48
2022-12-26T19:20:02.024Z,82.39
2022-12-26T19:25:22.106Z,82.48
2022-12-26T19:28:05.085Z,82.90
2022-12-26T19:30:42.523Z,82.66
2022-12-26T19:33:19.105Z,82.42
2022-12-26T19:35:47.605Z,82.49
2022-12-26T19:38:22.162Z,82.28
2022-12-26T19:40:51.722Z,82.78
2022-12-26T19:43:32.396Z,82.65
2022-12-26T19:46:05.583Z,82.39
2022-12-26T19:48:42.846Z,82.12
2022-12-26T19:51:15.463Z,81.65
2022-12-26T19:56:35.034Z,81.77
2022-12-26T19:59:18.540Z,81.76
2022-12-26T20:01:49.212Z,81.95
2022-12-26T20:04:34.152Z,81.72
2022-12-26T20:07:03.657Z,81.75
2022-12-26T20:09:41.227Z,81.87
2022-12-26T20:12:12.571Z,82.13
2022-12-26T20:14:52.521Z,81.94
2022-12-26T20:17:23.033Z,82.08
2022-12-26T20:22:52.846Z,81.99
2022-12-26T20:28:07.181Z,82.15
2022-12-26T20:45:52.661Z,82.48
2022-12-26T20:48:27.240Z,82.02
2022-12-26T20:51:10.055Z,82.22
2022-12-26T20:53:42.210Z,82.14
2022-12-26T20:59:16.896Z,82.34
2022-12-26T21:02:08.043Z,82.38
2022-12-26T21:04:58.423Z,82.11
2022-12-26T21:07:39.487Z,82.49
2022-12-26T21:16:19.539Z,82.47
2022-12-26T21:18:55.583Z,82.71
2022-12-26T21:21:42.966Z,82.41
2022-12-26T21:27:27.471Z,82.50
2022-12-26T21:30:07.034Z,82.40
2022-12-26T21:33:01.114Z,82.76
2022-12-26T21:35:50.232Z,82.69
2022-12-26T21:38:33.989Z,82.42
2022-12-26T21:43:55.019Z,82.27
2022-12-26T21:46:35.012Z,82.22
2022-12-26T21:49:06.316Z,81.89
2022-12-26T22:01:43.760Z,81.62
2022-12-26T22:08:05.912Z,81.73
2022-12-26T22:23:35.622Z,81.26
2022-12-26T22:26:12.067Z,81.04
2022-12-26T22:28:50.929Z,81.06
2022-12-26T22:31:23.445Z,81.00
2022-12-26T22:34:20.399Z,80.96
2022-12-26T22:48:34.661Z,80.69
2022-12-26T22:53:56.000Z,80.95
2022-12-26T23:02:00.429Z,80.86
2022-12-26T23:10:47.447Z,80.56
2022-12-26T23:20:15.384Z,80.42
2022-12-26T23:29:49.062Z,81.13
2022-12-26T23:37:48.082Z,81.74
2022-12-26T23:40:26.204Z,81.99
2022-12-26T23:52:24.175Z,82.14
